Time;durP1;ratioP1;P1;durP2;ratioP2;P2;SDS_P1;SDS_P2;PMS_P1;PMS_P2;Temp;Humidity;BMP_temperature;BMP_pressure;BME280_temperature;BME280_humidity;BME280_pressure;Samples;Min_cycle;Max_cycle;Signal;HPM_P1;HPM_P2
2022/12/10 00:01:48;;;;;;;21.53;13.73;;;4.60;99.90;;;;;;5095019;28;20693;-79
2022/12/10 00:04:14;;;;;;;26.97;15.23;;;4.60;99.90;;;;;;5094964;28;20174;-80
2022/12/10 00:06:41;;;;;;;24.60;14.40;;;4.60;99.90;;;;;;5095356;28;20760;-80
2022/12/10 00:09:13;;;;;;;27.13;16.33;;;4.60;99.90;;;;;;5094722;28;20629;-80
2022/12/10 00:11:39;;;;;;;41.80;17.90;;;4.70;99.90;;;;;;5095239;28;20167;-81
2022/12/10 00:14:06;;;;;;;31.80;17.13;;;4.70;99.90;;;;;;5098443;28;20499;-83
2022/12/10 00:16:36;;;;;;;34.40;17.10;;;4.70;99.90;;;;;;5115811;28;20166;-84
2022/12/10 00:19:03;;;;;;;31.23;17.67;;;4.60;99.90;;;;;;5114930;28;20173;-85
2022/12/10 00:21:31;;;;;;;30.90;17.10;;;4.60;99.90;;;;;;5115453;28;20684;-79
2022/12/10 00:23:58;;;;;;;33.33;17.50;;;4.60;99.90;;;;;;5115564;28;20563;-86
2022/12/10 00:26:27;;;;;;;32.37;17.23;;;4.60;99.90;;;;;;5115548;28;20170;-84
2022/12/10 00:28:53;;;;;;;39.93;18.30;;;4.50;99.90;;;;;;5115805;27;20177;-84
2022/12/10 00:31:31;;;;;;;29.87;16.50;;;4.50;99.90;;;;;;5115940;28;20262;-87
2022/12/10 00:33:59;;;;;;;29.00;16.57;;;4.50;99.90;;;;;;5115878;28;20155;-86
2022/12/10 00:36:28;;;;;;;34.73;17.30;;;4.50;99.90;;;;;;5114526;28;20191;-85
2022/12/10 00:38:54;;;;;;;35.27;17.27;;;4.50;99.90;;;;;;5115744;27;20220;-86
2022/12/10 00:41:20;;;;;;;30.50;16.63;;;4.60;99.90;;;;;;5115805;28;20205;-86
2022/12/10 00:43:47;;;;;;;33.13;17.00;;;4.60;99.90;;;;;;5115610;28;20175;-85
2022/12/10 00:46:15;;;;;;;33.63;17.73;;;4.50;99.90;;;;;;5123809;28;20172;-82
2022/12/10 00:48:42;;;;;;;31.20;17.57;;;4.70;99.90;;;;;;5131299;28;20200;-84
2022/12/10 00:51:10;;;;;;;33.03;16.90;;;4.70;99.90;;;;;;5134495;28;20183;-84
2022/12/10 00:53:38;;;;;;;28.63;16.30;;;4.70;99.90;;;;;;5119291;28;20174;-85
2022/12/10 00:56:04;;;;;;;33.40;17.67;;;4.70;99.90;;;;;;5116216;28;20224;-86
2022/12/10 00:58:32;;;;;;;31.83;16.03;;;4.70;99.90;;;;;;5115594;28;20176;-84
2022/12/10 01:01:34;;;;;;;28.40;15.67;;;4.80;99.90;;;;;;5115468;28;20940;-83
2022/12/10 01:04:18;;;;;;;32.13;17.50;;;4.80;99.90;;;;;;5105750;28;20236;-85
2022/12/10 01:06:49;;;;;;;29.90;15.90;;;4.80;99.90;;;;;;5116046;28;20170;-83
2022/12/10 01:09:23;;;;;;;26.97;16.83;;;4.80;99.90;;;;;;5115160;28;20185;-81
2022/12/10 01:11:50;;;;;;;27.80;16.43;;;4.70;99.90;;;;;;5117950;28;20209;-83
2022/12/10 01:14:27;;;;;;;28.33;16.67;;;4.70;99.90;;;;;;5113459;28;20265;-80
2022/12/10 01:16:58;;;;;;;26.37;15.97;;;4.80;99.90;;;;;;5097228;28;20621;-82
2022/12/10 01:19:25;;;;;;;27.27;15.30;;;4.80;99.90;;;;;;5096403;28;20250;-85
2022/12/10 01:21:53;;;;;;;28.00;15.40;;;4.80;99.90;;;;;;5095862;28;20206;-81
2022/12/10 01:24:20;;;;;;;32.20;16.30;;;4.90;99.90;;;;;;5097363;28;20167;-83
2022/12/10 01:26:46;;;;;;;30.27;16.60;;;4.90;99.90;;;;;;5096796;28;20552;-83
2022/12/10 01:29:12;;;;;;;28.10;16.80;;;4.90;99.90;;;;;;5097473;28;20171;-82
2022/12/10 01:31:38;;;;;;;33.07;16.53;;;4.90;99.90;;;;;;5102947;28;20185;-83
2022/12/10 01:34:05;;;;;;;27.90;15.60;;;4.80;99.90;;;;;;5099838;28;20242;-83
2022/12/10 01:36:34;;;;;;;30.70;17.63;;;4.80;99.90;;;;;;5096165;28;20593;-83
2022/12/10 01:39:03;;;;;;;32.77;16.50;;;4.90;99.90;;;;;;5094162;28;20277;-85
2022/12/10 01:41:33;;;;;;;32.53;17.40;;;4.90;99.90;;;;;;5094137;28;20256;-86
2022/12/10 01:44:00;;;;;;;27.90;16.67;;;4.90;99.90;;;;;;5093453;28;20174;-79
2022/12/10 01:46:35;;;;;;;32.47;17.80;;;4.90;99.90;;;;;;5093318;28;20178;-80
2022/12/10 01:49:03;;;;;;;33.90;16.90;;;4.90;99.90;;;;;;5092856;28;20288;-78
2022/12/10 01:51:33;;;;;;;31.93;16.57;;;4.90;99.90;;;;;;5093206;28;20167;-79
2022/12/10 01:54:00;;;;;;;30.67;17.20;;;4.90;99.90;;;;;;5093391;28;20190;-79
2022/12/10 01:56:26;;;;;;;33.47;18.10;;;4.90;99.90;;;;;;5093428;28;20630;-82
2022/12/10 01:58:54;;;;;;;34.83;18.67;;;4.80;99.90;;;;;;5093602;28;20178;-84
2022/12/10 02:01:55;;;;;;;34.63;17.77;;;4.90;99.90;;;;;;5093161;28;20685;-80
2022/12/10 02:04:41;;;;;;;33.80;17.83;;;4.80;99.90;;;;;;5093057;28;20205;-82
2022/12/10 02:07:31;;;;;;;33.90;17.20;;;4.90;99.90;;;;;;5093514;28;20194;-83
2022/12/10 02:10:23;;;;;;;32.87;17.07;;;4.90;99.90;;;;;;5092123;28;20529;-83
2022/12/10 02:13:25;;;;;;;35.27;17.43;;;4.80;99.90;;;;;;5055641;28;20274;-84
2022/12/10 02:15:57;;;;;;;31.87;17.43;;;4.90;99.90;;;;;;5120563;28;20167;-84
2022/12/10 02:18:39;;;;;;;32.77;17.63;;;5.00;99.90;;;;;;5114354;28;20161;-86
2022/12/10 02:21:18;;;;;;;29.70;16.47;;;5.00;99.90;;;;;;5113810;28;20579;-85
2022/12/10 02:23:51;;;;;;;35.57;18.33;;;4.90;99.90;;;;;;5114331;28;20636;-85
2022/12/10 02:26:24;;;;;;;31.10;16.83;;;5.00;99.90;;;;;;5115632;28;20166;-85
2022/12/10 02:29:25;;;;;;;26.20;15.50;;;5.00;99.90;;;;;;5136277;28;20165;-85
2022/12/10 02:31:57;;;;;;;22.03;14.07;;;5.00;99.90;;;;;;5035809;28;20543;-86
2022/12/10 02:34:26;;;;;;;19.53;11.97;;;5.00;99.90;;;;;;5051211;28;20259;-86
2022/12/10 02:36:54;;;;;;;15.80;10.80;;;4.90;99.90;;;;;;5055122;28;20169;-85
2022/12/10 02:39:26;;;;;;;19.23;11.77;;;4.90;99.90;;;;;;5058497;28;20667;-85
2022/12/10 02:41:57;;;;;;;17.13;11.13;;;4.90;99.90;;;;;;5055143;28;20622;-85
2022/12/10 02:44:25;;;;;;;18.53;10.63;;;5.00;99.90;;;;;;5051020;28;20211;-84
2022/12/10 02:46:53;;;;;;;17.87;11.17;;;;;;;;;;5050685;28;20198;-83
2022/12/10 02:49:20;;;;;;;15.53;10.20;;;5.10;99.90;;;;;;5050910;28;20184;-84
2022/12/10 02:51:46;;;;;;;14.00;10.67;;;5.20;99.90;;;;;;5050445;28;20172;-83
2022/12/10 02:54:41;;;;;;;13.73;10.57;;;5.10;99.90;;;;;;5033927;28;20191;-82
2022/12/10 02:57:24;;;;;;;13.00;9.83;;;5.10;99.90;;;;;;5050916;28;20603;-86
2022/12/10 03:00:08;;;;;;;11.50;8.63;;;5.10;99.90;;;;;;5050696;28;20172;-84
2022/12/10 03:02:49;;;;;;;13.77;8.93;;;5.10;99.90;;;;;;5054489;28;20215;-84
2022/12/10 03:06:03;;;;;;;12.03;8.63;;;5.10;99.90;;;;;;5055103;28;20247;-83
2022/12/10 03:09:08;;;;;;;13.37;8.10;;;5.00;99.90;;;;;;5041751;28;20631;-85
2022/12/10 03:11:35;;;;;;;10.03;7.80;;;5.00;99.90;;;;;;5114097;28;20201;-86
2022/12/10 03:14:25;;;;;;;9.67;7.30;;;5.00;99.90;;;;;;5114184;28;20510;-79
2022/12/10 03:16:57;;;;;;;11.53;8.40;;;5.00;99.90;;;;;;5096757;28;20159;-82
2022/12/10 03:19:36;;;;;;;10.20;8.33;;;5.10;99.90;;;;;;5099593;28;20533;-84
2022/12/10 03:22:04;;;;;;;11.40;8.87;;;5.10;99.90;;;;;;5098466;28;20223;-84
2022/12/10 03:24:32;;;;;;;12.33;8.60;;;5.10;99.90;;;;;;5098225;28;20586;-82
2022/12/10 03:26:58;;;;;;;12.07;7.90;;;5.20;99.90;;;;;;5104878;28;20191;-80
2022/12/10 03:29:33;;;;;;;9.47;7.60;;;5.20;99.90;;;;;;5101658;28;20178;-82
2022/12/10 03:32:00;;;;;;;11.97;8.47;;;5.30;99.90;;;;;;5096462;28;20188;-82
2022/12/10 03:34:27;;;;;;;13.10;8.80;;;5.20;99.90;;;;;;5096194;28;20558;-81
2022/12/10 03:36:53;;;;;;;11.37;8.53;;;5.30;99.90;;;;;;5095996;28;20163;-82
2022/12/10 03:39:19;;;;;;;10.77;7.73;;;5.30;99.90;;;;;;5096087;28;20167;-80
2022/12/10 03:41:45;;;;;;;10.83;7.93;;;5.30;99.90;;;;;;5094652;28;20288;-84
2022/12/10 03:44:11;;;;;;;11.83;8.83;;;5.30;99.90;;;;;;5096087;28;20179;-83
2022/12/10 03:46:38;;;;;;;14.70;9.83;;;5.30;99.90;;;;;;5095894;28;20171;-80
2022/12/10 03:49:09;;;;;;;16.17;10.47;;;5.30;99.90;;;;;;5096253;28;20209;-85
2022/12/10 03:51:34;;;;;;;17.93;11.30;;;5.20;99.90;;;;;;5096365;28;20633;-83
2022/12/10 03:54:00;;;;;;;18.07;11.33;;;5.30;99.90;;;;;;5095905;28;20170;-82
2022/12/10 03:56:26;;;;;;;15.53;10.33;;;5.40;99.90;;;;;;5095621;28;20176;-82
2022/12/10 03:58:52;;;;;;;20.53;12.07;;;5.30;99.90;;;;;;5096148;28;20168;-81
2022/12/10 04:01:17;;;;;;;22.50;13.67;;;5.40;99.90;;;;;;5095563;28;20245;-85
2022/12/10 04:03:44;;;;;;;18.80;11.97;;;5.40;99.90;;;;;;5096211;28;20230;-85
2022/12/10 04:06:16;;;;;;;27.23;15.27;;;5.30;99.90;;;;;;5106639;28;20172;-82
2022/12/10 04:08:43;;;;;;;30.10;14.90;;;5.30;99.90;;;;;;5107874;28;20171;-84
2022/12/10 04:11:10;;;;;;;25.97;14.90;;;5.40;99.90;;;;;;5100951;28;20570;-83
2022/12/10 04:16:26;;;;;;;29.00;15.77;;;5.40;99.90;;;;;;5075875;28;20208;-85
2022/12/10 04:18:53;;;;;;;30.80;16.33;;;5.40;99.90;;;;;;5075483;28;20512;-86
2022/12/10 04:26:51;;;;;;;32.67;15.43;;;5.30;99.90;;;;;;5077786;28;20668;-82
2022/12/10 04:29:27;;;;;;;31.13;16.70;;;5.20;99.90;;;;;;5075819;28;20262;-86
2022/12/10 04:31:54;;;;;;;28.57;15.87;;;5.30;99.90;;;;;;5076015;28;20167;-84
2022/12/10 04:34:20;;;;;;;27.30;15.83;;;5.30;99.90;;;;;;5075425;28;20523;-86
2022/12/10 04:36:47;;;;;;;29.10;16.60;;;5.20;99.90;;;;;;5076033;28;20507;-84
2022/12/10 04:39:13;;;;;;;28.17;15.90;;;5.20;99.90;;;;;;5083210;28;20167;-83
2022/12/10 04:41:45;;;;;;;26.40;15.60;;;5.20;99.90;;;;;;5078466;28;20209;-81
2022/12/10 04:44:11;;;;;;;28.47;15.70;;;5.20;99.90;;;;;;5074814;28;20260;-85
2022/12/10 04:46:37;;;;;;;26.63;15.23;;;5.20;99.90;;;;;;5090336;28;20211;-85
2022/12/10 04:49:04;;;;;;;28.33;16.50;;;5.20;99.90;;;;;;5074619;28;20167;-81
2022/12/10 04:51:31;;;;;;;30.60;16.53;;;5.20;99.90;;;;;;5074121;28;20182;-84
2022/12/10 04:53:57;;;;;;;27.47;16.03;;;5.20;99.90;;;;;;5075490;28;20190;-84
2022/12/10 04:56:23;;;;;;;25.87;16.00;;;5.20;99.90;;;;;;5089877;28;20206;-85
2022/12/10 04:58:49;;;;;;;26.50;15.77;;;5.10;99.90;;;;;;5074356;28;20199;-81
2022/12/10 05:01:15;;;;;;;27.93;15.70;;;5.20;99.90;;;;;;5074181;28;20668;-84
2022/12/10 05:03:41;;;;;;;29.67;15.37;;;5.20;99.90;;;;;;5075620;28;20194;-83
2022/12/10 05:06:13;;;;;;;24.03;14.77;;;5.20;99.90;;;;;;5076856;28;20250;-86
2022/12/10 05:08:40;;;;;;;22.43;13.90;;;5.30;99.90;;;;;;5077385;28;20179;-86
2022/12/10 05:11:10;;;;;;;23.50;14.20;;;5.30;99.90;;;;;;5093676;28;20171;-84
2022/12/10 05:13:36;;;;;;;21.47;13.73;;;5.20;99.90;;;;;;5081089;28;20174;-82
2022/12/10 05:16:03;;;;;;;24.17;14.13;;;5.20;99.90;;;;;;5114789;28;20174;-82
2022/12/10 05:18:29;;;;;;;24.97;13.57;;;5.20;99.90;;;;;;5114332;28;20245;-82
2022/12/10 05:21:02;;;;;;;24.73;13.40;;;5.10;99.90;;;;;;5114330;28;20715;-80
2022/12/10 05:23:28;;;;;;;22.50;13.37;;;5.10;99.90;;;;;;5113591;28;20281;-82
2022/12/10 05:26:06;;;;;;;20.10;13.27;;;5.10;99.90;;;;;;5113901;28;20804;-79
2022/12/10 05:28:35;;;;;;;23.33;14.10;;;5.10;99.90;;;;;;5114468;28;20158;-82
2022/12/10 05:31:01;;;;;;;22.70;13.83;;;5.10;99.90;;;;;;5113055;28;20200;-81
2022/12/10 05:33:27;;;;;;;19.53;13.07;;;5.20;99.90;;;;;;5114551;28;20166;-83
2022/12/10 05:35:58;;;;;;;24.53;14.83;;;5.20;99.90;;;;;;5115453;28;20191;-85
2022/12/10 05:38:24;;;;;;;20.77;13.43;;;5.10;99.90;;;;;;5118979;28;20618;-82
2022/12/10 05:40:51;;;;;;;20.70;12.83;;;5.10;99.90;;;;;;5115611;28;20170;-85
2022/12/10 05:43:17;;;;;;;20.93;13.23;;;5.10;99.90;;;;;;5118445;28;20700;-82
2022/12/10 05:45:43;;;;;;;23.90;15.17;;;5.20;99.90;;;;;;5126113;28;20202;-80
2022/12/10 05:48:11;;;;;;;24.87;14.87;;;5.20;99.90;;;;;;5118466;28;20173;-82
2022/12/10 05:50:37;;;;;;;22.17;14.07;;;5.20;99.90;;;;;;5115945;28;20162;-83
2022/12/10 05:53:03;;;;;;;24.27;13.80;;;5.30;99.90;;;;;;5118230;28;20532;-84
2022/12/10 05:55:29;;;;;;;21.93;13.40;;;5.20;99.90;;;;;;5114801;28;20205;-86
2022/12/10 05:57:55;;;;;;;23.70;12.97;;;5.20;99.90;;;;;;5116917;28;20170;-86
2022/12/10 06:00:23;;;;;;;22.90;13.03;;;5.30;99.90;;;;;;5117773;28;20206;-87
2022/12/10 06:02:50;;;;;;;20.23;12.33;;;5.30;99.90;;;;;;5112331;28;20611;-85
2022/12/10 06:05:16;;;;;;;19.87;12.60;;;5.30;99.90;;;;;;5114045;28;20169;-85
2022/12/10 06:07:42;;;;;;;19.83;12.93;;;5.30;99.90;;;;;;5113985;28;20186;-85
2022/12/10 06:10:08;;;;;;;23.50;14.73;;;5.20;99.90;;;;;;5114314;28;20179;-84
2022/12/10 06:12:34;;;;;;;23.47;13.20;;;5.30;99.90;;;;;;5114724;28;20675;-85
2022/12/10 06:15:01;;;;;;;21.00;12.43;;;5.30;99.90;;;;;;5102970;28;20182;-86
2022/12/10 06:17:26;;;;;;;21.30;13.23;;;5.30;99.90;;;;;;5094666;28;20564;-83
2022/12/10 06:19:52;;;;;;;21.57;13.97;;;5.40;99.90;;;;;;5093070;28;20239;-84
2022/12/10 06:22:18;;;;;;;19.73;12.50;;;5.40;99.90;;;;;;5092884;28;20285;-85
2022/12/10 06:24:44;;;;;;;22.53;14.07;;;5.40;99.90;;;;;;5093073;28;20178;-85
2022/12/10 06:27:09;;;;;;;18.67;13.03;;;5.40;99.90;;;;;;5093011;28;20175;-83
2022/12/10 06:29:35;;;;;;;18.90;12.13;;;5.40;99.90;;;;;;5095557;28;20175;-83
2022/12/10 06:32:01;;;;;;;22.60;13.53;;;5.40;99.90;;;;;;5093076;28;20202;-86
2022/12/10 06:34:27;;;;;;;20.87;13.70;;;5.40;99.90;;;;;;5094715;28;20205;-83
2022/12/10 06:36:53;;;;;;;20.17;12.93;;;5.40;99.90;;;;;;5099374;28;20167;-83
2022/12/10 06:39:22;;;;;;;18.03;12.93;;;5.40;99.90;;;;;;5097628;28;20502;-84
2022/12/10 06:41:48;;;;;;;18.57;12.93;;;5.40;99.90;;;;;;5097437;28;20282;-82
2022/12/10 06:44:14;;;;;;;21.07;12.57;;;5.50;99.90;;;;;;5097275;28;20253;-85
2022/12/10 06:46:40;;;;;;;16.40;12.17;;;5.40;99.90;;;;;;5096991;28;20262;-86
2022/12/10 06:49:07;;;;;;;21.13;13.17;;;5.40;99.90;;;;;;5097092;28;20167;-85
2022/12/10 06:51:33;;;;;;;16.97;11.87;;;5.50;99.90;;;;;;5097902;28;20175;-84
2022/12/10 06:53:59;;;;;;;19.23;12.20;;;5.50;99.90;;;;;;5099963;28;20657;-84
2022/12/10 06:56:25;;;;;;;18.30;12.50;;;5.50;99.90;;;;;;5099522;28;20179;-86
2022/12/10 06:58:51;;;;;;;16.97;12.07;;;5.50;99.90;;;;;;5100627;28;20170;-84
2022/12/10 07:01:25;;;;;;;17.73;12.03;;;5.50;99.90;;;;;;5105842;28;20228;-80
2022/12/10 07:03:54;;;;;;;18.90;12.53;;;5.40;99.90;;;;;;5110021;28;20175;-84
2022/12/10 07:06:21;;;;;;;17.90;11.63;;;5.40;99.90;;;;;;5097835;28;20592;-83
2022/12/10 07:08:47;;;;;;;19.33;12.37;;;5.50;99.90;;;;;;5097595;28;20176;-84
2022/12/10 07:11:15;;;;;;;17.00;11.13;;;5.50;99.90;;;;;;5097546;28;20175;-86
2022/12/10 07:13:41;;;;;;;16.63;11.17;;;5.50;99.90;;;;;;5098451;28;20587;-84
2022/12/10 07:16:17;;;;;;;15.23;11.53;;;5.50;99.90;;;;;;5117353;27;20167;-83
2022/12/10 07:18:43;;;;;;;16.67;11.63;;;5.50;99.90;;;;;;5117295;28;20170;-80
2022/12/10 07:21:25;;;;;;;17.43;12.00;;;5.60;99.90;;;;;;5119666;27;20175;-85
2022/12/10 07:23:57;;;;;;;18.30;11.93;;;5.60;99.90;;;;;;5135744;28;20164;-84
2022/12/10 07:26:25;;;;;;;15.67;11.03;;;5.60;99.90;;;;;;5128332;28;20166;-85
2022/12/10 07:28:51;;;;;;;16.37;11.40;;;5.60;99.90;;;;;;5118515;28;20203;-84
2022/12/10 07:31:18;;;;;;;18.17;12.50;;;5.50;99.90;;;;;;5116897;28;20254;-83
2022/12/10 07:33:43;;;;;;;15.43;11.30;;;5.60;99.90;;;;;;5116804;28;20237;-81
2022/12/10 07:36:11;;;;;;;12.80;10.30;;;5.60;99.90;;;;;;5116670;28;20199;-83
2022/12/10 07:38:38;;;;;;;14.23;11.57;;;5.60;99.90;;;;;;5098696;28;20270;-81
2022/12/10 07:41:06;;;;;;;14.97;11.13;;;5.70;99.90;;;;;;5096278;28;20245;-81
2022/12/10 07:43:39;;;;;;;16.50;10.90;;;5.70;99.90;;;;;;5096904;28;20215;-85
2022/12/10 07:46:09;;;;;;;14.37;10.77;;;5.70;99.90;;;;;;5094460;28;20186;-85
2022/12/10 07:48:36;;;;;;;14.73;10.27;;;5.70;99.90;;;;;;5096143;28;20209;-85
2022/12/10 07:51:03;;;;;;;13.23;10.13;;;5.70;99.90;;;;;;5098161;28;20178;-84
2022/12/10 07:53:29;;;;;;;13.07;9.93;;;5.70;99.90;;;;;;5097807;28;20171;-82
2022/12/10 07:55:55;;;;;;;12.13;9.77;;;5.70;99.90;;;;;;5096266;28;20178;-85
2022/12/10 07:58:22;;;;;;;14.53;10.10;;;5.70;99.90;;;;;;5097407;28;20176;-84
2022/12/10 08:00:48;;;;;;;13.53;9.97;;;5.70;99.90;;;;;;5096459;28;20694;-83
2022/12/10 08:03:14;;;;;;;12.70;9.53;;;5.70;99.90;;;;;;5095729;28;20221;-84
2022/12/10 08:05:39;;;;;;;15.50;10.30;;;5.70;99.90;;;;;;5099162;28;20180;-85
2022/12/10 08:08:05;;;;;;;16.43;11.70;;;5.70;99.90;;;;;;5096446;28;20177;-84
2022/12/10 08:10:34;;;;;;;14.20;11.30;;;5.80;99.90;;;;;;5095978;28;20577;-86
2022/12/10 08:13:00;;;;;;;14.83;10.37;;;5.70;99.90;;;;;;5096119;28;20259;-87
2022/12/10 08:15:27;;;;;;;12.73;9.57;;;5.90;99.90;;;;;;5117374;28;20210;-79
2022/12/10 08:17:53;;;;;;;11.70;8.83;;;6.00;99.90;;;;;;5124901;28;20500;-85
2022/12/10 08:20:19;;;;;;;11.07;8.70;;;6.00;99.90;;;;;;5116757;28;20187;-84
2022/12/10 08:22:45;;;;;;;11.20;9.00;;;6.00;99.90;;;;;;5114812;28;20216;-86
2022/12/10 08:25:11;;;;;;;9.10;7.43;;;6.00;99.90;;;;;;5115977;28;20247;-84
2022/12/10 08:27:37;;;;;;;10.40;8.83;;;6.00;99.90;;;;;;5100002;28;20185;-84
2022/12/10 08:30:03;;;;;;;12.37;9.00;;;6.00;99.90;;;;;;5094377;28;20274;-83
2022/12/10 08:32:29;;;;;;;11.27;9.10;;;5.90;99.90;;;;;;5095326;28;20179;-84
2022/12/10 08:34:55;;;;;;;11.77;9.63;;;5.90;99.90;;;;;;5096316;28;20241;-84
2022/12/10 08:37:21;;;;;;;12.43;9.97;;;5.90;99.90;;;;;;5094143;28;20202;-84
2022/12/10 08:39:47;;;;;;;14.40;8.97;;;5.90;99.90;;;;;;5094604;28;20180;-85
2022/12/10 08:42:13;;;;;;;11.87;9.20;;;5.80;99.90;;;;;;5097655;28;20260;-77
2022/12/10 08:44:38;;;;;;;10.87;8.93;;;5.80;99.90;;;;;;5097954;28;20627;-83
2022/12/10 08:47:05;;;;;;;11.67;8.33;;;5.80;99.90;;;;;;5098082;28;20207;-85
2022/12/10 08:49:31;;;;;;;10.70;7.97;;;5.80;99.90;;;;;;5099036;28;20218;-85
2022/12/10 08:51:57;;;;;;;9.60;7.83;;;5.80;99.90;;;;;;5108539;28;20178;-84
2022/12/10 08:54:22;;;;;;;12.73;8.30;;;5.80;99.90;;;;;;5101199;28;20654;-85
2022/12/10 08:56:49;;;;;;;11.90;8.43;;;5.90;99.90;;;;;;5095972;28;20589;-83
2022/12/10 08:59:15;;;;;;;12.20;7.80;;;5.90;99.90;;;;;;5096010;28;20175;-86
2022/12/10 09:01:40;;;;;;;10.53;7.60;;;5.90;99.90;;;;;;5104925;28;20245;-81
2022/12/10 09:04:06;;;;;;;11.07;7.90;;;5.90;99.90;;;;;;5108286;28;20175;-83
2022/12/10 09:06:32;;;;;;;9.67;7.67;;;5.90;99.90;;;;;;5097975;28;20216;-81
2022/12/10 09:08:58;;;;;;;8.63;7.13;;;6.00;99.90;;;;;;5093599;28;20215;-78
2022/12/10 09:11:32;;;;;;;9.77;7.43;;;6.00;99.90;;;;;;5094451;28;20235;-83
2022/12/10 09:13:58;;;;;;;10.67;7.13;;;6.00;99.90;;;;;;5097072;28;20275;-84
2022/12/10 09:16:34;;;;;;;10.73;7.43;;;6.10;99.90;;;;;;5115114;28;20172;-82
2022/12/10 09:19:03;;;;;;;10.53;6.97;;;6.20;99.90;;;;;;5116700;28;20167;-80
2022/12/10 09:21:30;;;;;;;9.60;7.43;;;6.30;99.90;;;;;;5115947;28;20176;-83
2022/12/10 09:23:56;;;;;;;8.20;6.93;;;6.30;99.90;;;;;;5118540;28;20182;-84
2022/12/10 09:26:22;;;;;;;9.57;7.37;;;6.20;99.90;;;;;;5117953;28;20164;-84
2022/12/10 09:28:48;;;;;;;8.37;7.03;;;6.20;99.90;;;;;;5107352;28;20200;-84
2022/12/10 09:31:17;;;;;;;8.57;6.63;;;6.10;99.90;;;;;;5097990;28;20174;-86
2022/12/10 09:33:47;;;;;;;8.00;6.17;;;6.10;99.90;;;;;;5094687;28;20249;-83
2022/12/10 09:36:14;;;;;;;8.23;7.10;;;6.10;99.90;;;;;;5094714;28;20167;-85
2022/12/10 09:38:41;;;;;;;8.83;7.23;;;6.10;99.90;;;;;;5095513;28;20221;-82
2022/12/10 09:42:00;;;;;;;9.73;7.30;;;6.10;99.90;;;;;;5097804;28;20176;-81
2022/12/10 09:44:41;;;;;;;8.40;6.80;;;6.00;99.90;;;;;;5095391;28;20196;-82
2022/12/10 09:47:10;;;;;;;9.70;7.77;;;6.10;99.90;;;;;;5096968;28;20247;-81
2022/12/10 09:50:10;;;;;;;8.60;7.30;;;6.00;99.90;;;;;;5093418;28;20182;-81
2022/12/10 09:52:43;;;;;;;7.83;6.63;;;6.00;99.90;;;;;;5093711;28;20675;-84
2022/12/10 09:55:14;;;;;;;8.10;6.40;;;6.00;99.90;;;;;;5093502;28;20164;-82
2022/12/10 09:57:45;;;;;;;6.97;6.27;;;6.00;99.90;;;;;;5093269;28;20162;-79
2022/12/10 10:00:35;;;;;;;6.93;5.17;;;6.00;99.90;;;;;;5093084;28;20211;-78
2022/12/10 10:03:02;;;;;;;6.80;5.83;;;6.00;99.90;;;;;;5092846;28;20199;-79
2022/12/10 10:05:41;;;;;;;5.97;4.97;;;6.10;99.90;;;;;;5093248;28;20211;-79
2022/12/10 10:08:17;;;;;;;6.13;5.50;;;6.10;99.90;;;;;;5093615;28;20164;-84
2022/12/10 10:10:44;;;;;;;5.60;5.07;;;6.10;99.90;;;;;;5093304;28;20168;-82
2022/12/10 10:13:29;;;;;;;5.20;4.70;;;6.10;99.90;;;;;;5094639;28;20187;-82
2022/12/10 10:15:55;;;;;;;5.30;4.63;;;6.10;99.90;;;;;;5113648;28;20260;-82
2022/12/10 10:18:33;;;;;;;5.33;4.80;;;6.10;99.90;;;;;;5115112;28;20557;-82
2022/12/10 10:21:01;;;;;;;6.23;5.10;;;6.20;99.90;;;;;;5111859;28;20610;-81
2022/12/10 10:23:26;;;;;;;6.73;5.30;;;6.20;99.90;;;;;;5113586;28;20206;-83
2022/12/10 10:25:52;;;;;;;5.33;4.83;;;6.10;99.90;;;;;;5113301;28;20183;-83
2022/12/10 10:28:22;;;;;;;6.17;5.40;;;6.10;99.90;;;;;;5099910;28;20171;-83
2022/12/10 10:30:51;;;;;;;6.80;5.20;;;6.10;99.90;;;;;;5072254;28;20207;-85
2022/12/10 10:33:17;;;;;;;5.67;4.70;;;6.20;99.90;;;;;;5079426;28;20206;-84
2022/12/10 10:35:52;;;;;;;8.17;5.07;;;6.20;99.90;;;;;;5094281;28;20642;-84
2022/12/10 10:38:28;;;;;;;6.50;4.87;;;6.20;99.90;;;;;;5095387;28;20195;-85
2022/12/10 10:41:04;;;;;;;6.63;5.07;;;6.30;99.90;;;;;;5095259;28;20175;-81
2022/12/10 10:43:41;;;;;;;6.03;4.97;;;6.30;99.90;;;;;;5101179;28;20199;-82
2022/12/10 10:46:11;;;;;;;5.30;4.80;;;6.40;99.90;;;;;;5110781;28;20210;-82
2022/12/10 10:48:40;;;;;;;5.40;4.90;;;6.50;99.90;;;;;;5098419;28;20178;-81
2022/12/10 10:51:19;;;;;;;4.47;4.10;;;6.50;99.90;;;;;;5093270;28;20175;-83
2022/12/10 10:53:47;;;;;;;5.87;4.60;;;6.50;99.90;;;;;;5091873;28;20310;-85
2022/12/10 10:56:29;;;;;;;4.93;4.40;;;6.60;99.90;;;;;;5093384;28;20175;-83
2022/12/10 10:59:01;;;;;;;4.80;4.33;;;6.50;99.90;;;;;;5092885;28;20205;-82
2022/12/10 11:01:55;;;;;;;4.40;4.00;;;6.50;99.90;;;;;;5092349;28;20307;-84
2022/12/10 11:04:37;;;;;;;4.70;4.27;;;6.60;99.90;;;;;;5093166;28;20162;-85
2022/12/10 11:07:05;;;;;;;4.63;4.30;;;6.50;99.90;;;;;;5092914;28;20159;-85
2022/12/10 11:09:36;;;;;;;4.63;4.23;;;6.50;99.90;;;;;;5093191;28;20695;-86
2022/12/10 11:12:06;;;;;;;5.10;4.13;;;6.60;99.90;;;;;;5092927;28;20175;-86
2022/12/10 11:14:44;;;;;;;4.43;4.03;;;6.50;99.90;;;;;;5099873;28;20178;-84
2022/12/10 11:17:10;;;;;;;4.03;3.63;;;6.40;99.90;;;;;;5113122;28;20168;-83
2022/12/10 11:19:42;;;;;;;4.23;3.83;;;6.40;99.90;;;;;;5113035;28;20186;-85
2022/12/10 11:22:17;;;;;;;4.37;3.97;;;6.30;99.90;;;;;;5115079;28;20193;-85
2022/12/10 11:24:45;;;;;;;4.77;4.37;;;6.30;99.90;;;;;;5117468;28;20170;-84
2022/12/10 11:27:34;;;;;;;4.87;4.40;;;6.30;99.90;;;;;;5117573;28;20170;-80
2022/12/10 11:30:11;;;;;;;4.33;3.93;;;6.30;99.90;;;;;;5087157;28;20665;-82
2022/12/10 11:32:54;;;;;;;5.57;4.73;;;6.40;99.90;;;;;;5118432;28;20171;-83
2022/12/10 11:35:38;;;;;;;4.77;4.37;;;6.30;99.90;;;;;;5116910;28;20177;-86
2022/12/10 11:38:15;;;;;;;5.00;4.50;;;6.30;99.90;;;;;;5117294;28;20171;-84
2022/12/10 11:40:53;;;;;;;5.10;4.60;;;6.40;99.90;;;;;;5116864;28;20247;-81
2022/12/10 11:43:48;;;;;;;6.17;4.90;;;6.40;99.90;;;;;;5115875;28;20245;-81
2022/12/10 11:46:35;;;;;;;5.13;4.73;;;6.40;99.90;;;;;;5115997;28;20180;-80
2022/12/10 11:49:10;;;;;;;5.37;4.50;;;6.30;99.90;;;;;;5115872;28;20216;-78
2022/12/10 11:52:00;;;;;;;5.17;4.43;;;6.30;99.90;;;;;;5115582;28;20626;-79
2022/12/10 11:54:34;;;;;;;4.67;4.27;;;6.30;99.90;;;;;;5115584;28;20184;-80
2022/12/10 11:57:13;;;;;;;4.40;4.10;;;6.30;99.90;;;;;;5117613;28;20170;-80
2022/12/10 11:59:45;;;;;;;5.07;4.50;;;6.20;99.90;;;;;;5115698;28;20190;-77
2022/12/10 12:02:23;;;;;;;4.50;4.10;;;6.30;99.90;;;;;;5114725;28;20232;-81
2022/12/10 12:05:07;;;;;;;5.07;4.67;;;6.30;99.90;;;;;;5115292;28;20194;-86
2022/12/10 12:07:37;;;;;;;5.40;4.90;;;6.20;99.90;;;;;;5115575;28;20175;-84
2022/12/10 12:10:03;;;;;;;5.73;5.33;;;6.20;99.90;;;;;;5115784;28;20158;-88
2022/12/10 12:13:00;;;;;;;7.67;6.30;;;6.20;99.90;;;;;;5115908;28;20185;-84
2022/12/10 12:15:34;;;;;;;6.97;6.13;;;6.20;99.90;;;;;;5101215;28;20164;-82
2022/12/10 12:18:11;;;;;;;7.07;6.20;;;6.20;99.90;;;;;;5095380;28;20259;-81
2022/12/10 12:20:58;;;;;;;6.47;5.87;;;6.30;99.90;;;;;;5101309;28;20246;-89
2022/12/10 12:23:42;;;;;;;8.30;5.80;;;6.30;99.90;;;;;;5082360;28;20307;-80
2022/12/10 12:26:28;;;;;;;6.07;5.57;;;6.30;99.90;;;;;;5096357;28;20170;-79
2022/12/10 12:29:12;;;;;;;6.13;5.63;;;6.20;99.90;;;;;;5099921;28;20172;-77
2022/12/10 12:31:41;;;;;;;6.53;5.93;;;6.20;99.90;;;;;;5095059;28;20164;-80
2022/12/10 12:34:28;;;;;;;6.87;6.27;;;6.20;99.90;;;;;;5095959;28;20168;-81
2022/12/10 12:36:55;;;;;;;7.37;6.67;;;6.10;99.90;;;;;;5095185;28;20163;-79
2022/12/10 12:39:32;;;;;;;6.83;6.23;;;6.10;99.90;;;;;;5095790;28;20171;-81
2022/12/10 12:42:18;;;;;;;6.77;6.17;;;6.10;99.90;;;;;;5096254;28;20190;-80
2022/12/10 12:45:16;;;;;;;7.93;7.13;;;6.10;99.90;;;;;;5094855;28;20197;-83
2022/12/10 12:47:41;;;;;;;8.50;7.60;;;6.10;99.90;;;;;;5093736;28;20206;-85
2022/12/10 12:50:26;;;;;;;11.60;8.90;;;6.10;99.90;;;;;;5095128;28;20185;-81
2022/12/10 12:52:57;;;;;;;12.20;8.80;;;6.10;99.90;;;;;;5095160;28;20164;-84
2022/12/10 12:55:36;;;;;;;10.70;8.40;;;6.00;99.90;;;;;;5094861;28;20183;-84
2022/12/10 12:58:22;;;;;;;10.27;8.17;;;6.00;99.90;;;;;;5093910;28;20167;-80
2022/12/10 13:00:52;;;;;;;7.93;6.77;;;6.00;99.90;;;;;;5094514;28;20702;-80
2022/12/10 13:03:40;;;;;;;10.33;8.33;;;6.00;99.90;;;;;;5094921;28;20277;-82
2022/12/10 13:06:31;;;;;;;10.40;8.07;;;6.00;99.90;;;;;;5095495;28;20534;-86
2022/12/10 13:09:15;;;;;;;11.60;8.17;;;6.00;99.90;;;;;;5094675;28;20188;-85
2022/12/10 13:11:43;;;;;;;13.13;10.10;;;6.00;99.90;;;;;;5096623;28;20171;-84
2022/12/10 13:14:08;;;;;;;9.20;7.73;;;6.00;99.90;;;;;;5095383;28;20175;-81
2022/12/10 13:16:40;;;;;;;9.70;7.50;;;6.00;99.90;;;;;;5095079;28;20241;-83